Terminal Aerodrome Forecast
Issued by NWS

Home | Current Version | Previous Version | Text Only | Print | Product List | Glossary On
Versions: 1 2 3 4 5 6 7 8 9 10 11 12 13 14 15 16 17 18
291
FTUS43 KGRB 071005 AAA
TAFATW
TAF AMD
KATW 071005Z 0710/0806 17012G16KT P6SM SCT040 BKN080
     FM071400 22011G15KT P6SM BKN060 OVC090
     FM080000 24007KT P6SM SCT025 BKN040=

USA.gov is the U.S. government's official web portal to all federal, state and local government web resources and services.